Map

Track Data

SID SEASON NUMBER BASIN SUBBASIN NAME ISO_TIME NATURE LAT LON WMO_WIND WMO_PRES WMO_AGENCY TRACK_TYPE DIST2LAND LANDFALL IFLAG USA_AGENCY USA_ATCF_ID USA_LAT USA_LON USA_RECORD USA_STATUS USA_WIND USA_PRES USA_SSHS USA_R34_NE USA_R34_SE USA_R34_SW USA_R34_NW USA_R50_NE USA_R50_SE USA_R50_SW USA_R50_NW USA_R64_NE USA_R64_SE USA_R64_SW USA_R64_NW USA_POCI USA_ROCI USA_RMW USA_EYE TOKYO_LAT TOKYO_LON TOKYO_GRADE TOKYO_WIND TOKYO_PRES TOKYO_R50_DIR TOKYO_R50_LONG TOKYO_R50_SHORT TOKYO_R30_DIR TOKYO_R30_LONG TOKYO_R30_SHORT TOKYO_LAND CMA_LAT CMA_LON CMA_CAT CMA_WIND CMA_PRES HKO_LAT HKO_LON HKO_CAT HKO_WIND HKO_PRES NEWDELHI_LAT NEWDELHI_LON NEWDELHI_GRADE NEWDELHI_WIND NEWDELHI_PRES NEWDELHI_CI NEWDELHI_DP NEWDELHI_POCI REUNION_LAT REUNION_LON REUNION_TYPE REUNION_WIND REUNION_PRES REUNION_TNUM REUNION_CI REUNION_RMW REUNION_R34_NE REUNION_R34_SE REUNION_R34_SW REUNION_R34_NW REUNION_R50_NE REUNION_R50_SE REUNION_R50_SW REUNION_R50_NW REUNION_R64_NE REUNION_R64_SE REUNION_R64_SW REUNION_R64_NW BOM_LAT BOM_LON BOM_TYPE BOM_WIND BOM_PRES BOM_TNUM BOM_CI BOM_RMW BOM_R34_NE BOM_R34_SE BOM_R34_SW BOM_R34_NW BOM_R50_NE BOM_R50_SE BOM_R50_SW BOM_R50_NW BOM_R64_NE BOM_R64_SE BOM_R64_SW BOM_R64_NW BOM_ROCI BOM_POCI BOM_EYE BOM_POS_METHOD BOM_PRES_METHOD NADI_LAT NADI_LON NADI_CAT NADI_WIND NADI_PRES WELLINGTON_LAT WELLINGTON_LON WELLINGTON_WIND WELLINGTON_PRES DS824_LAT DS824_LON DS824_STAGE DS824_WIND DS824_PRES TD9636_LAT TD9636_LON TD9636_STAGE TD9636_WIND TD9636_PRES TD9635_LAT TD9635_LON TD9635_WIND TD9635_PRES TD9635_ROCI NEUMANN_LAT NEUMANN_LON NEUMANN_CLASS NEUMANN_WIND NEUMANN_PRES MLC_LAT MLC_LON MLC_CLASS MLC_WIND MLC_PRES USA_GUST BOM_GUST BOM_GUST_PER REUNION_GUST REUNION_GUST_PER USA_SEAHGT USA_SEARAD_NE USA_SEARAD_SE USA_SEARAD_SW USA_SEARAD_NW STORM_SPEED STORM_DIR
1933206N14306 1933 31 NA NA NOT_NAMED 1933-07-24 12:00:00 TS 14.0000 -54.5000 30 hurdat_atl main 797 742 O_____________ hurdat_atl AL051933 14.0000 -54.5000 TD 30 -1 14 291
1933206N14306 1933 31 NA NA NOT_NAMED 1933-07-24 15:00:00 TS 14.2554 -55.1921 main 747 698 P_____________ AL051933 14.2554 -55.1921 TD 30 -1 14 290
1933206N14306 1933 31 NA NA NOT_NAMED 1933-07-24 18:00:00 TS 14.5000 -55.9000 30 hurdat_atl main 698 654 O_____________ hurdat_atl AL051933 14.5000 -55.9000 TD 30 -1 15 289
1933206N14306 1933 31 NA NA NOT_NAMED 1933-07-24 21:00:00 TS 14.7348 -56.6354 main 654 619 P_____________ AL051933 14.7348 -56.6354 TD 32 -1 15 289
1933206N14306 1933 31 NA NA NOT_NAMED 1933-07-25 00:00:00 TS 15.0000 -57.4000 35 hurdat_atl main 619 599 O_____________ hurdat_atl AL051933 15.0000 -57.4000 TS 35 0 16 292
1933206N14306 1933 31 NA NA NOT_NAMED 1933-07-25 03:00:00 TS 15.3272 -58.1852 main 597 591 P_____________ AL051933 15.3272 -58.1852 TS 37 0 17 294
1933206N14306 1933 31 NA NA NOT_NAMED 1933-07-25 06:00:00 TS 15.7000 -59.0000 40 hurdat_atl main 600 596 O_____________ hurdat_atl AL051933 15.7000 -59.0000 TS 40 0 18 296
1933206N14306 1933 31 NA NA NOT_NAMED 1933-07-25 09:00:00 TS 16.0923 -59.8427 main 618 553 P_____________ AL051933 16.0923 -59.8427 TS 45 0 18 296
1933206N14306 1933 31 NA CS NOT_NAMED 1933-07-25 12:00:00 TS 16.5000 -60.7000 50 hurdat_atl main 553 458 O_____________ hurdat_atl AL051933 16.5000 -60.7000 TS 50 0 19 296
1933206N14306 1933 31 NA CS NOT_NAMED 1933-07-25 15:00:00 TS 16.9225 -61.5799 main 448 353 P_____________ AL051933 16.9225 -61.5799 TS 55 0 18 296
1933206N14306 1933 31 NA CS NOT_NAMED 1933-07-25 18:00:00 TS 17.3000 -62.4000 60 hurdat_atl main 353 286 O_____________ hurdat_atl AL051933 17.3000 -62.4000 TS 60 0 16 294
1933206N14306 1933 31 NA CS NOT_NAMED 1933-07-25 21:00:00 TS 17.5569 -63.0733 main 272 205 P_____________ AL051933 17.5569 -63.0733 TS 67 1 13 292
1933206N14306 1933 31 NA CS NOT_NAMED 1933-07-26 00:00:00 TS 17.8000 -63.7000 75 hurdat_atl main 205 127 O_____________ hurdat_atl AL051933 17.8000 -63.7000 HU 75 1 14 294
1933206N14306 1933 31 NA CS NOT_NAMED 1933-07-26 03:00:00 TS 18.1275 -64.4076 main 127 53 P_____________ AL051933 18.1275 -64.4076 HU 75 1 15 298
1933206N14306 1933 31 NA CS NOT_NAMED 1933-07-26 06:00:00 TS 18.5000 -65.1000 75 hurdat_atl main 53 38 O_____________ hurdat_atl AL051933 18.5000 -65.1000 HU 75 1 15 302
1933206N14306 1933 31 NA NA NOT_NAMED 1933-07-26 09:00:00 TS 18.9147 -65.7150 main 55 55 P_____________ AL051933 18.9147 -65.7150 HU 75 1 14 305
1933206N14306 1933 31 NA NA NOT_NAMED 1933-07-26 12:00:00 TS 19.3000 -66.3000 75 hurdat_atl main 100 100 O_____________ hurdat_atl AL051933 19.3000 -66.3000 HU 75 1 13 300
1933206N14306 1933 31 NA NA NOT_NAMED 1933-07-26 15:00:00 TS 19.5724 -66.9079 main 134 134 P_____________ AL051933 19.5724 -66.9079 HU 75 1 12 294
1933206N14306 1933 31 NA NA NOT_NAMED 1933-07-26 18:00:00 TS 19.8000 -67.5000 75 hurdat_atl main 158 148 O_____________ hurdat_atl AL051933 19.8000 -67.5000 HU 75 1 12 294
1933206N14306 1933 31 NA NA NOT_NAMED 1933-07-26 21:00:00 TS 20.0498 -68.0652 main 143 130 P_____________ AL051933 20.0498 -68.0652 HU 75 1 11 296
1933206N14306 1933 31 NA NA NOT_NAMED 1933-07-27 00:00:00 TS 20.3000 -68.6000 75 hurdat_atl main 133 128 O_____________ hurdat_atl AL051933 20.3000 -68.6000 HU 75 1 11 297
1933206N14306 1933 31 NA NA NOT_NAMED 1933-07-27 03:00:00 TS 20.5498 -69.1077 main 135 133 P_____________ AL051933 20.5498 -69.1077 HU 75 1 11 298
1933206N14306 1933 31 NA NA NOT_NAMED 1933-07-27 06:00:00 TS 20.8000 -69.6000 75 hurdat_atl main 140 137 O_____________ hurdat_atl AL051933 20.8000 -69.6000 HU 75 1 11 298
1933206N14306 1933 31 NA NA NOT_NAMED 1933-07-27 09:00:00 TS 21.0499 -70.1002 main 143 143 P_____________ AL051933 21.0499 -70.1002 HU 75 1 11 298
1933206N14306 1933 31 NA NA NOT_NAMED 1933-07-27 12:00:00 TS 21.3000 -70.6000 75 hurdat_atl main 167 167 O_____________ hurdat_atl AL051933 21.3000 -70.6000 HU 75 1 10 298
1933206N14306 1933 31 NA NA NOT_NAMED 1933-07-27 15:00:00 TS 21.5348 -71.0929 main 190 159 P_____________ AL051933 21.5348 -71.0929 HU 75 1 11 298
1933206N14306 1933 31 NA NA NOT_NAMED 1933-07-27 18:00:00 TS 21.8000 -71.6000 75 hurdat_atl main 159 136 O_____________ hurdat_atl AL051933 21.8000 -71.6000 HU 75 1 11 302
1933206N14306 1933 31 NA NA NOT_NAMED 1933-07-27 21:00:00 TS 22.1348 -72.1351 main 137 133 P_____________ AL051933 22.1348 -72.1351 HU 75 1 12 304
1933206N14306 1933 31 NA NA NOT_NAMED 1933-07-28 00:00:00 TS 22.5000 -72.7000 75 hurdat_atl main 148 146 O_____________ hurdat_atl AL051933 22.5000 -72.7000 HU 75 1 13 303
1933206N14306 1933 31 NA NA NOT_NAMED 1933-07-28 03:00:00 TS 22.8424 -73.3003 main 179 179 P_____________ AL051933 22.8424 -73.3003 HU 75 1 13 302
1933206N14306 1933 31 NA NA NOT_NAMED 1933-07-28 06:00:00 TS 23.2000 -73.9000 75 hurdat_atl main 234 234 O_____________ hurdat_atl AL051933 23.2000 -73.9000 HU 75 1 13 305
1933206N14306 1933 31 NA NA NOT_NAMED 1933-07-28 09:00:00 TS 23.6076 -74.4948 main 291 279 P_____________ AL051933 23.6076 -74.4948 HU 72 1 13 308
1933206N14306 1933 31 NA NA NOT_NAMED 1933-07-28 12:00:00 TS 24.0000 -75.0000 70 hurdat_atl main 279 243 O_____________ hurdat_atl AL051933 24.0000 -75.0000 HU 70 1 11 312
1933206N14306 1933 31 NA NA NOT_NAMED 1933-07-28 15:00:00 TS 24.3222 -75.3604 main 233 212 P_____________ AL051933 24.3222 -75.3604 HU 70 1 8 318
1933206N14306 1933 31 NA NA NOT_NAMED 1933-07-28 18:00:00 TS 24.6000 -75.6000 70 hurdat_atl main 212 194 O_____________ hurdat_atl AL051933 24.6000 -75.6000 HU 70 1 7 325
1933206N14306 1933 31 NA NA NOT_NAMED 1933-07-28 21:00:00 TS 24.8574 -75.7727 main 196 190 P_____________ AL051933 24.8574 -75.7727 HU 70 1 6 331
1933206N14306 1933 31 NA NA NOT_NAMED 1933-07-29 00:00:00 TS 25.1000 -75.9000 70 hurdat_atl main 193 188 O_____________ hurdat_atl AL051933 25.1000 -75.9000 HU 70 1 6 333
1933206N14306 1933 31 NA NA NOT_NAMED 1933-07-29 03:00:00 TS 25.3575 -76.0500 main 188 183 P_____________ AL051933 25.3575 -76.0500 HU 70 1 6 331
1933206N14306 1933 31 NA NA NOT_NAMED 1933-07-29 06:00:00 TS 25.6000 -76.2000 70 hurdat_atl main 187 183 O_____________ hurdat_atl AL051933 25.6000 -76.2000 HU 70 1 5 331
1933206N14306 1933 31 NA NA NOT_NAMED 1933-07-29 09:00:00 TS 25.8149 -76.3276 main 187 178 P_____________ AL051933 25.8149 -76.3276 HU 70 1 5 326
1933206N14306 1933 31 NA NA NOT_NAMED 1933-07-29 12:00:00 TS 26.0000 -76.5000 70 hurdat_atl main 180 171 O_____________ hurdat_atl AL051933 26.0000 -76.5000 HU 70 1 5 312
1933206N14306 1933 31 NA NA NOT_NAMED 1933-07-29 15:00:00 TS 26.1573 -76.7477 main 179 161 P_____________ AL051933 26.1573 -76.7477 HU 70 1 6 299
1933206N14306 1933 31 NA NA NOT_NAMED 1933-07-29 18:00:00 TS 26.3000 -77.1000 70 hurdat_atl main 161 153 O_____________ hurdat_atl AL051933 26.3000 -77.1000 HU 70 1 8 292
1933206N14306 1933 31 NA NA NOT_NAMED 1933-07-29 21:00:00 TS 26.4576 -77.5699 main 161 156 P_____________ AL051933 26.4576 -77.5699 HU 70 1 9 289
1933206N14306 1933 31 NA NA NOT_NAMED 1933-07-30 00:00:00 TS 26.6000 -78.1000 70 hurdat_atl main 167 139 O_____________ hurdat_atl AL051933 26.6000 -78.1000 HU 70 1 10 285
1933206N14306 1933 31 NA NA NOT_NAMED 1933-07-30 03:00:00 TS 26.7075 -78.6226 main 139 89 P_____________ AL051933 26.7075 -78.6226 HU 70 1 9 283
1933206N14306 1933 31 NA NA NOT_NAMED 1933-07-30 06:00:00 TS 26.8000 -79.1000 70 hurdat_atl main 89 50 O_____________ hurdat_atl AL051933 26.8000 -79.1000 HU 70 1 8 284
1933206N14306 1933 31 NA NA NOT_NAMED 1933-07-30 09:00:00 TS 26.9044 -79.4941 main 50 29 P_____________ AL051933 26.9044 -79.4941 HU 67 1 7 288
1933206N14306 1933 31 NA NA NOT_NAMED 1933-07-30 12:00:00 TS 27.0000 -79.8000 65 988 hurdat_atl main 29 14 O_____________ hurdat_atl AL051933 27.0000 -79.8000 HU 65 988 1 5 291
1933206N14306 1933 31 NA NA NOT_NAMED 1933-07-30 15:00:00 TS 27.0859 -80.0194 main 14 9 P_____________ AL051933 27.0859 -80.0194 HU 65 988 1 4 291
1933206N14306 1933 31 NA NA NOT_NAMED 1933-07-30 16:00:00 TS 27.1000 -80.1000 65 988 hurdat_atl main 9 0 O_____________ hurdat_atl AL051933 27.1000 -80.1000 L HU 65 988 1 5 273
1933206N14306 1933 31 NA NA NOT_NAMED 1933-07-30 18:00:00 TS 27.1000 -80.3000 60 hurdat_atl main 0 0 O_____________ hurdat_atl AL051933 27.1000 -80.3000 TS 60 0 5 270
1933206N14306 1933 31 NA NA NOT_NAMED 1933-07-30 21:00:00 TS 27.0999 -80.5233 main 0 0 P_____________ AL051933 27.0999 -80.5233 TS 55 0 4 270
1933206N14306 1933 31 NA NA NOT_NAMED 1933-07-31 00:00:00 TS 27.1000 -80.7000 50 hurdat_atl main 0 0 O_____________ hurdat_atl AL051933 27.1000 -80.7000 TS 50 0 3 271
1933206N14306 1933 31 NA NA NOT_NAMED 1933-07-31 03:00:00 TS 27.1074 -80.8924 main 0 0 P_____________ AL051933 27.1074 -80.8924 TS 47 0 4 270
1933206N14306 1933 31 NA NA NOT_NAMED 1933-07-31 06:00:00 TS 27.1000 -81.1000 45 hurdat_atl main 0 0 O_____________ hurdat_atl AL051933 27.1000 -81.1000 TS 45 0 4 261
1933206N14306 1933 31 NA NA NOT_NAMED 1933-07-31 09:00:00 TS 27.0498 -81.3201 main 0 0 P_____________ AL051933 27.0498 -81.3201 TS 42 0 5 257
1933206N14306 1933 31 NA NA NOT_NAMED 1933-07-31 12:00:00 TS 27.0000 -81.6000 40 hurdat_atl main 0 0 O_____________ hurdat_atl AL051933 27.0000 -81.6000 TS 40 0 6 264
1933206N14306 1933 31 NA NA NOT_NAMED 1933-07-31 15:00:00 TS 26.9925 -81.9774 main 0 0 P_____________ AL051933 26.9925 -81.9774 TS 40 0 7 270
1933206N14306 1933 31 NA GM NOT_NAMED 1933-07-31 18:00:00 TS 27.0000 -82.4000 40 hurdat_atl main 9 9 O_____________ hurdat_atl AL051933 27.0000 -82.4000 TS 40 0 7 271
1933206N14306 1933 31 NA GM NOT_NAMED 1933-07-31 21:00:00 TS 26.9998 -82.7925 main 37 37 P_____________ AL051933 26.9998 -82.7925 TS 40 0 7 270
1933206N14306 1933 31 NA GM NOT_NAMED 1933-08-01 00:00:00 TS 27.0000 -83.2000 40 hurdat_atl main 68 68 O_____________ hurdat_atl AL051933 27.0000 -83.2000 TS 40 0 8 270
1933206N14306 1933 31 NA GM NOT_NAMED 1933-08-01 03:00:00 TS 26.9999 -83.6425 main 104 104 P_____________ AL051933 26.9999 -83.6425 TS 40 0 8 270
1933206N14306 1933 31 NA GM NOT_NAMED 1933-08-01 06:00:00 TS 27.0000 -84.1000 40 hurdat_atl main 152 152 O_____________ hurdat_atl AL051933 27.0000 -84.1000 TS 40 0 8 271
1933206N14306 1933 31 NA GM NOT_NAMED 1933-08-01 09:00:00 TS 27.0075 -84.5649 main 195 195 P_____________ AL051933 27.0075 -84.5649 TS 40 0 8 270
1933206N14306 1933 31 NA GM NOT_NAMED 1933-08-01 12:00:00 TS 27.0000 -85.0000 40 hurdat_atl main 230 230 O_____________ hurdat_atl AL051933 27.0000 -85.0000 TS 40 0 7 266
1933206N14306 1933 31 NA GM NOT_NAMED 1933-08-01 15:00:00 TS 26.9573 -85.3725 main 266 266 P_____________ AL051933 26.9573 -85.3725 TS 40 0 6 261
1933206N14306 1933 31 NA GM NOT_NAMED 1933-08-01 18:00:00 TS 26.9000 -85.7000 40 hurdat_atl main 297 297 O_____________ hurdat_atl AL051933 26.9000 -85.7000 TS 40 0 6 260
1933206N14306 1933 31 NA GM NOT_NAMED 1933-08-01 21:00:00 TS 26.8573 -85.9999 main 318 318 P_____________ AL051933 26.8573 -85.9999 TS 40 0 5 259
1933206N14306 1933 31 NA GM NOT_NAMED 1933-08-02 00:00:00 TS 26.8000 -86.3000 40 hurdat_atl main 335 335 O_____________ hurdat_atl AL051933 26.8000 -86.3000 TS 40 0 6 255
1933206N14306 1933 31 NA GM NOT_NAMED 1933-08-02 03:00:00 TS 26.7075 -86.6425 main 354 338 P_____________ AL051933 26.7075 -86.6425 TS 40 0 7 252
1933206N14306 1933 31 NA GM NOT_NAMED 1933-08-02 06:00:00 TS 26.6000 -87.0000 40 hurdat_atl main 338 330 O_____________ hurdat_atl AL051933 26.6000 -87.0000 TS 40 0 6 251
1933206N14306 1933 31 NA GM NOT_NAMED 1933-08-02 09:00:00 TS 26.4997 -87.3274 main 330 320 P_____________ AL051933 26.4997 -87.3274 TS 42 0 7 252
1933206N14306 1933 31 NA GM NOT_NAMED 1933-08-02 12:00:00 TS 26.4000 -87.7000 45 hurdat_atl main 321 313 O_____________ hurdat_atl AL051933 26.4000 -87.7000 TS 45 0 8 255
1933206N14306 1933 31 NA GM NOT_NAMED 1933-08-02 15:00:00 TS 26.3000 -88.1700 main 314 309 P_____________ AL051933 26.3000 -88.1700 TS 45 0 9 257
1933206N14306 1933 31 NA GM NOT_NAMED 1933-08-02 18:00:00 TS 26.2000 -88.7000 45 hurdat_atl main 315 313 O_____________ hurdat_atl AL051933 26.2000 -88.7000 TS 45 0 10 258
1933206N14306 1933 31 NA GM NOT_NAMED 1933-08-02 21:00:00 TS 26.0924 -89.2425 main 323 323 P_____________ AL051933 26.0924 -89.2425 TS 47 0 10 259
1933206N14306 1933 31 NA GM NOT_NAMED 1933-08-03 00:00:00 TS 26.0000 -89.8000 50 hurdat_atl main 342 342 O_____________ hurdat_atl AL051933 26.0000 -89.8000 TS 50 0 10 261
1933206N14306 1933 31 NA GM NOT_NAMED 1933-08-03 03:00:00 TS 25.9423 -90.3499 main 357 357 P_____________ AL051933 25.9423 -90.3499 TS 50 0 10 264
1933206N14306 1933 31 NA GM NOT_NAMED 1933-08-03 06:00:00 TS 25.9000 -90.9000 50 hurdat_atl main 357 357 O_____________ hurdat_atl AL051933 25.9000 -90.9000 TS 50 0 10 264
1933206N14306 1933 31 NA GM NOT_NAMED 1933-08-03 09:00:00 TS 25.8425 -91.4651 main 373 373 P_____________ AL051933 25.8425 -91.4651 TS 52 0 10 264
1933206N14306 1933 31 NA GM NOT_NAMED 1933-08-03 12:00:00 TS 25.8000 -92.0000 55 hurdat_atl main 384 384 O_____________ hurdat_atl AL051933 25.8000 -92.0000 TS 55 0 9 267
1933206N14306 1933 31 NA GM NOT_NAMED 1933-08-03 15:00:00 TS 25.7923 -92.4724 main 400 400 P_____________ AL051933 25.7923 -92.4724 TS 57 0 8 270
1933206N14306 1933 31 NA GM NOT_NAMED 1933-08-03 18:00:00 TS 25.8000 -92.9000 60 hurdat_atl main 417 380 O_____________ hurdat_atl AL051933 25.8000 -92.9000 TS 60 0 8 271
1933206N14306 1933 31 NA GM NOT_NAMED 1933-08-03 21:00:00 TS 25.7998 -93.3075 main 380 340 P_____________ AL051933 25.7998 -93.3075 TS 62 0 7 270
1933206N14306 1933 31 NA GM NOT_NAMED 1933-08-04 00:00:00 TS 25.8000 -93.7000 65 hurdat_atl main 340 300 O_____________ hurdat_atl AL051933 25.8000 -93.7000 HU 65 1 7 270
1933206N14306 1933 31 NA GM NOT_NAMED 1933-08-04 03:00:00 TS 25.7999 -94.1000 main 300 260 P_____________ AL051933 25.7999 -94.1000 HU 67 1 7 270
1933206N14306 1933 31 NA GM NOT_NAMED 1933-08-04 06:00:00 TS 25.8000 -94.5000 70 hurdat_atl main 260 221 O_____________ hurdat_atl AL051933 25.8000 -94.5000 HU 70 1 7 270
1933206N14306 1933 31 NA GM NOT_NAMED 1933-08-04 09:00:00 TS 25.7998 -94.8925 main 221 181 P_____________ AL051933 25.7998 -94.8925 HU 72 1 7 270
1933206N14306 1933 31 NA GM NOT_NAMED 1933-08-04 12:00:00 TS 25.8000 -95.3000 75 hurdat_atl main 181 141 O_____________ hurdat_atl AL051933 25.8000 -95.3000 HU 75 1 8 270
1933206N14306 1933 31 NA GM NOT_NAMED 1933-08-04 15:00:00 TS 25.7999 -95.7425 main 141 92 P_____________ AL051933 25.7999 -95.7425 HU 77 1 8 270
1933206N14306 1933 31 NA GM NOT_NAMED 1933-08-04 18:00:00 TS 25.8000 -96.2000 80 hurdat_atl main 92 54 O_____________ hurdat_atl AL051933 25.8000 -96.2000 HU 80 1 8 271
1933206N14306 1933 31 NA GM NOT_NAMED 1933-08-04 21:00:00 TS 25.8150 -96.6724 main 45 10 P_____________ AL051933 25.8150 -96.6724 HU 80 1 8 270
1933206N14306 1933 31 NA GM NOT_NAMED 1933-08-05 00:00:00 TS 25.8000 -97.1000 80 975 hurdat_atl main 10 0 O_____________ hurdat_atl AL051933 25.8000 -97.1000 HU 80 975 1 7 262
1933206N14306 1933 31 NA NA NOT_NAMED 1933-08-05 03:00:00 TS 25.7148 -97.4225 main 0 0 P_____________ AL051933 25.7148 -97.4225 HU 67 1 6 250
1933206N14306 1933 31 NA NA NOT_NAMED 1933-08-05 06:00:00 TS 25.6000 -97.7000 55 hurdat_atl main 0 0 O_____________ hurdat_atl AL051933 25.6000 -97.7000 TS 55 0 6 247
1933206N14306 1933 31 NA NA NOT_NAMED 1933-08-05 09:00:00 TS 25.4999 -97.9924 main 0 0 P_____________ AL051933 25.4999 -97.9924 TS 50 0 6 250
1933206N14306 1933 31 NA NA NOT_NAMED 1933-08-05 12:00:00 TS 25.4000 -98.3000 45 hurdat_atl main 0 0 O_____________ hurdat_atl AL051933 25.4000 -98.3000 TS 45 0 6 251
1933206N14306 1933 31 NA NA NOT_NAMED 1933-08-05 15:00:00 TS 25.3002 -98.6401 main 0 0 P_____________ AL051933 25.3002 -98.6401 TS 40 0 7 252
1933206N14306 1933 31 NA NA NOT_NAMED 1933-08-05 18:00:00 TS 25.2000 -99.0000 35 hurdat_atl main 0 O_____________ hurdat_atl AL051933 25.2000 -99.0000 TS 35 0 7 253

About IBTrACS Database

This database is a web-friendly format of International Best Track Archive for Climate Stewardship (IBTrACS), a global best track data archive curated by NOAA dating back to 1842.

Updated: 2021-11-26